sensor_id;sensor_type;location;lat;lon;timestamp;P1;durP1;ratioP1;P2;durP2;ratioP2
75914;SDS011;64593;51.050;13.780;2023-05-10T06:01:05;4.75;;;1.63;;
75914;SDS011;64593;51.050;13.780;2023-05-10T06:06:33;5.43;;;1.38;;
75914;SDS011;64593;51.050;13.780;2023-05-10T06:11:42;1.48;;;0.75;;
75914;SDS011;64593;51.050;13.780;2023-05-10T06:16:54;2.85;;;1.23;;
75914;SDS011;64593;51.050;13.780;2023-05-10T06:21:56;3.97;;;1.20;;
75914;SDS011;64593;51.050;13.780;2023-05-10T06:27:15;2.83;;;1.60;;
75914;SDS011;64593;51.050;13.780;2023-05-10T06:32:22;2.30;;;0.85;;
75914;SDS011;64593;51.050;13.780;2023-05-10T06:37:33;4.68;;;1.75;;
75914;SDS011;64593;51.050;13.780;2023-05-10T06:42:36;2.17;;;1.17;;
75914;SDS011;64593;51.050;13.780;2023-05-10T06:47:37;3.38;;;1.08;;
75914;SDS011;64593;51.050;13.780;2023-05-10T06:52:39;1.98;;;1.10;;
75914;SDS011;64593;51.050;13.780;2023-05-10T06:57:41;3.42;;;1.23;;
75914;SDS011;64593;51.050;13.780;2023-05-10T07:02:47;4.80;;;1.42;;
75914;SDS011;64593;51.050;13.780;2023-05-10T07:07:55;3.35;;;1.13;;
75914;SDS011;64593;51.050;13.780;2023-05-10T07:13:02;2.05;;;1.23;;
75914;SDS011;64593;51.050;13.780;2023-05-10T07:18:06;1.90;;;1.00;;
75914;SDS011;64593;51.050;13.780;2023-05-10T07:23:08;4.25;;;1.60;;
75914;SDS011;64593;51.050;13.780;2023-05-10T07:28:13;2.08;;;0.82;;
75914;SDS011;64593;51.050;13.780;2023-05-10T07:33:16;3.83;;;2.22;;
75914;SDS011;64593;51.050;13.780;2023-05-10T07:38:18;2.83;;;1.45;;
75914;SDS011;64593;51.050;13.780;2023-05-10T07:43:19;4.32;;;1.30;;
75914;SDS011;64593;51.050;13.780;2023-05-10T07:48:21;4.93;;;2.08;;
75914;SDS011;64593;51.050;13.780;2023-05-10T07:53:23;5.75;;;1.67;;
75914;SDS011;64593;51.050;13.780;2023-05-10T07:58:27;6.05;;;1.50;;
75914;SDS011;64593;51.050;13.780;2023-05-10T08:03:29;2.65;;;1.20;;
75914;SDS011;64593;51.050;13.780;2023-05-10T08:08:31;2.92;;;1.23;;
75914;SDS011;64593;51.050;13.780;2023-05-10T08:13:34;3.10;;;1.63;;
75914;SDS011;64593;51.050;13.780;2023-05-10T08:18:36;3.85;;;1.98;;
75914;SDS011;64593;51.050;13.780;2023-05-10T08:28:48;2.95;;;1.45;;
75914;SDS011;64593;51.050;13.780;2023-05-10T08:33:50;5.38;;;1.75;;
75914;SDS011;64593;51.050;13.780;2023-05-10T08:38:55;3.45;;;1.65;;
75914;SDS011;64593;51.050;13.780;2023-05-10T08:43:57;5.22;;;1.80;;
75914;SDS011;64593;51.050;13.780;2023-05-10T08:49:01;4.35;;;1.48;;
75914;SDS011;64593;51.050;13.780;2023-05-10T08:59:16;3.33;;;1.95;;
75914;SDS011;64593;51.050;13.780;2023-05-10T09:04:17;2.83;;;1.52;;
75914;SDS011;64593;51.050;13.780;2023-05-10T09:09:20;2.65;;;1.40;;
75914;SDS011;64593;51.050;13.780;2023-05-10T09:14:27;6.63;;;1.75;;
75914;SDS011;64593;51.050;13.780;2023-05-10T09:19:28;3.00;;;1.25;;
75914;SDS011;64593;51.050;13.780;2023-05-10T09:24:32;2.38;;;1.35;;
75914;SDS011;64593;51.050;13.780;2023-05-10T09:29:41;6.90;;;1.33;;
75914;SDS011;64593;51.050;13.780;2023-05-10T09:34:43;2.38;;;1.33;;
75914;SDS011;64593;51.050;13.780;2023-05-10T09:39:49;3.13;;;1.40;;
75914;SDS011;64593;51.050;13.780;2023-05-10T09:44:59;2.58;;;1.40;;
75914;SDS011;64593;51.050;13.780;2023-05-10T09:50:10;2.97;;;1.60;;
75914;SDS011;64593;51.050;13.780;2023-05-10T09:55:18;2.55;;;1.30;;
75914;SDS011;64593;51.050;13.780;2023-05-10T10:00:21;2.67;;;1.60;;
75914;SDS011;64593;51.050;13.780;2023-05-10T10:10:34;4.63;;;2.40;;
75914;SDS011;64593;51.050;13.780;2023-05-10T10:15:41;4.85;;;1.67;;
75914;SDS011;64593;51.050;13.780;2023-05-10T10:20:44;4.82;;;1.98;;
75914;SDS011;64593;51.050;13.780;2023-05-10T10:25:52;2.63;;;1.50;;
75914;SDS011;64593;51.050;13.780;2023-05-10T10:31:02;6.35;;;2.40;;
75914;SDS011;64593;51.050;13.780;2023-05-10T10:36:30;3.65;;;1.63;;
75914;SDS011;64593;51.050;13.780;2023-05-10T10:41:59;4.57;;;1.95;;
75914;SDS011;64593;51.050;13.780;2023-05-10T10:52:44;4.78;;;1.63;;
75914;SDS011;64593;51.050;13.780;2023-05-10T10:58:12;3.15;;;1.92;;
75914;SDS011;64593;51.050;13.780;2023-05-10T11:09:25;2.50;;;1.60;;
75914;SDS011;64593;51.050;13.780;2023-05-10T11:14:33;6.90;;;1.80;;
75914;SDS011;64593;51.050;13.780;2023-05-10T11:19:35;2.60;;;1.58;;
75914;SDS011;64593;51.050;13.780;2023-05-10T11:24:40;2.78;;;1.63;;
75914;SDS011;64593;51.050;13.780;2023-05-10T11:30:00;2.85;;;1.50;;
75914;SDS011;64593;51.050;13.780;2023-05-10T11:35:08;5.28;;;2.03;;
75914;SDS011;64593;51.050;13.780;2023-05-10T11:40:37;6.50;;;1.80;;
75914;SDS011;64593;51.050;13.780;2023-05-10T11:45:47;4.03;;;2.05;;
75914;SDS011;64593;51.050;13.780;2023-05-10T11:50:51;4.10;;;1.90;;
75914;SDS011;64593;51.050;13.780;2023-05-10T11:56:18;3.40;;;1.80;;
75914;SDS011;64593;51.050;13.780;2023-05-10T12:01:46;6.57;;;2.20;;
75914;SDS011;64593;51.050;13.780;2023-05-10T12:06:48;6.50;;;2.63;;
75914;SDS011;64593;51.050;13.780;2023-05-10T12:12:17;3.30;;;2.15;;
75914;SDS011;64593;51.050;13.780;2023-05-10T12:17:44;3.65;;;1.80;;
75914;SDS011;64593;51.050;13.780;2023-05-10T12:22:49;3.67;;;2.10;;
75914;SDS011;64593;51.050;13.780;2023-05-10T12:28:08;6.30;;;1.83;;
75914;SDS011;64593;51.050;13.780;2023-05-10T12:33:11;7.20;;;3.13;;
75914;SDS011;64593;51.050;13.780;2023-05-10T12:38:42;8.65;;;2.08;;
75914;SDS011;64593;51.050;13.780;2023-05-10T12:43:45;6.78;;;2.50;;
75914;SDS011;64593;51.050;13.780;2023-05-10T12:49:12;5.32;;;2.53;;
75914;SDS011;64593;51.050;13.780;2023-05-10T12:54:39;4.20;;;2.13;;
75914;SDS011;64593;51.050;13.780;2023-05-10T12:59:47;5.03;;;2.20;;
75914;SDS011;64593;51.050;13.780;2023-05-10T13:05:13;4.32;;;2.10;;
75914;SDS011;64593;51.050;13.780;2023-05-10T13:10:15;6.00;;;2.63;;
75914;SDS011;64593;51.050;13.780;2023-05-10T13:15:42;4.10;;;1.95;;
75914;SDS011;64593;51.050;13.780;2023-05-10T13:21:09;8.23;;;2.28;;
75914;SDS011;64593;51.050;13.780;2023-05-10T13:26:13;4.75;;;1.70;;
75914;SDS011;64593;51.050;13.780;2023-05-10T13:31:14;4.95;;;1.90;;
75914;SDS011;64593;51.050;13.780;2023-05-10T13:36:16;5.53;;;2.15;;
75914;SDS011;64593;51.050;13.780;2023-05-10T13:41:43;3.70;;;2.00;;
75914;SDS011;64593;51.050;13.780;2023-05-10T13:46:45;5.60;;;2.50;;
75914;SDS011;64593;51.050;13.780;2023-05-10T13:51:47;3.80;;;1.70;;
75914;SDS011;64593;51.050;13.780;2023-05-10T13:57:16;4.07;;;2.00;;
75914;SDS011;64593;51.050;13.780;2023-05-10T14:02:43;5.03;;;2.15;;
75914;SDS011;64593;51.050;13.780;2023-05-10T14:07:45;5.53;;;2.50;;
75914;SDS011;64593;51.050;13.780;2023-05-10T14:13:12;5.15;;;1.80;;
75914;SDS011;64593;51.050;13.780;2023-05-10T14:18:14;3.00;;;1.75;;
75914;SDS011;64593;51.050;13.780;2023-05-10T14:23:16;2.88;;;1.52;;
75914;SDS011;64593;51.050;13.780;2023-05-10T14:28:18;5.45;;;1.70;;
75914;SDS011;64593;51.050;13.780;2023-05-10T14:33:47;3.83;;;1.52;;
75914;SDS011;64593;51.050;13.780;2023-05-10T14:39:13;3.33;;;1.70;;
75914;SDS011;64593;51.050;13.780;2023-05-10T14:44:40;5.60;;;1.73;;
75914;SDS011;64593;51.050;13.780;2023-05-10T14:49:42;4.35;;;1.88;;
75914;SDS011;64593;51.050;13.780;2023-05-10T14:54:45;9.60;;;1.60;;
75914;SDS011;64593;51.050;13.780;2023-05-10T14:59:46;3.35;;;1.45;;
75914;SDS011;64593;51.050;13.780;2023-05-10T15:04:49;3.72;;;1.90;;
75914;SDS011;64593;51.050;13.780;2023-05-10T15:10:15;4.65;;;2.30;;
75914;SDS011;64593;51.050;13.780;2023-05-10T15:15:42;4.78;;;2.05;;
75914;SDS011;64593;51.050;13.780;2023-05-10T15:20:44;3.65;;;2.00;;
75914;SDS011;64593;51.050;13.780;2023-05-10T15:26:10;3.60;;;2.10;;
75914;SDS011;64593;51.050;13.780;2023-05-10T15:31:12;6.32;;;1.98;;
75914;SDS011;64593;51.050;13.780;2023-05-10T15:36:14;5.15;;;1.98;;
75914;SDS011;64593;51.050;13.780;2023-05-10T15:41:15;5.28;;;1.90;;
75914;SDS011;64593;51.050;13.780;2023-05-10T15:46:17;5.32;;;2.35;;
75914;SDS011;64593;51.050;13.780;2023-05-10T15:51:44;2.95;;;2.00;;
75914;SDS011;64593;51.050;13.780;2023-05-10T15:57:11;4.40;;;1.80;;
75914;SDS011;64593;51.050;13.780;2023-05-10T16:02:38;5.00;;;2.22;;
75914;SDS011;64593;51.050;13.780;2023-05-10T16:07:41;3.67;;;2.00;;
75914;SDS011;64593;51.050;13.780;2023-05-10T16:12:43;7.50;;;2.00;;
75914;SDS011;64593;51.050;13.780;2023-05-10T16:17:44;4.35;;;2.08;;
75914;SDS011;64593;51.050;13.780;2023-05-10T16:23:11;5.35;;;1.92;;
75914;SDS011;64593;51.050;13.780;2023-05-10T16:28:39;4.57;;;2.20;;
75914;SDS011;64593;51.050;13.780;2023-05-10T16:33:41;4.28;;;1.92;;
75914;SDS011;64593;51.050;13.780;2023-05-10T16:38:44;5.32;;;2.53;;
75914;SDS011;64593;51.050;13.780;2023-05-10T16:44:10;10.02;;;2.10;;
75914;SDS011;64593;51.050;13.780;2023-05-10T16:50:04;5.60;;;1.90;;
75914;SDS011;64593;51.050;13.780;2023-05-10T16:55:07;3.47;;;2.05;;
75914;SDS011;64593;51.050;13.780;2023-05-10T17:00:09;3.65;;;1.80;;
75914;SDS011;64593;51.050;13.780;2023-05-10T17:05:12;4.72;;;2.20;;
75914;SDS011;64593;51.050;13.780;2023-05-10T17:10:14;4.22;;;2.30;;
75914;SDS011;64593;51.050;13.780;2023-05-10T17:15:44;4.30;;;2.15;;
75914;SDS011;64593;51.050;13.780;2023-05-10T17:20:49;3.58;;;2.33;;
75914;SDS011;64593;51.050;13.780;2023-05-10T17:25:52;5.82;;;2.20;;
75914;SDS011;64593;51.050;13.780;2023-05-10T17:30:55;5.13;;;2.05;;
75914;SDS011;64593;51.050;13.780;2023-05-10T17:35:58;4.07;;;2.15;;
75914;SDS011;64593;51.050;13.780;2023-05-10T17:40:59;4.57;;;2.33;;
75914;SDS011;64593;51.050;13.780;2023-05-10T17:46:01;5.68;;;2.40;;
75914;SDS011;64593;51.050;13.780;2023-05-10T17:51:04;8.63;;;2.50;;
75914;SDS011;64593;51.050;13.780;2023-05-10T17:56:07;3.92;;;2.30;;
75914;SDS011;64593;51.050;13.780;2023-05-10T18:01:09;4.15;;;1.80;;
75914;SDS011;64593;51.050;13.780;2023-05-10T18:06:11;5.32;;;2.00;;
75914;SDS011;64593;51.050;13.780;2023-05-10T18:11:16;2.63;;;1.40;;
75914;SDS011;64593;51.050;13.780;2023-05-10T18:16:18;2.88;;;1.42;;
75914;SDS011;64593;51.050;13.780;2023-05-10T18:21:20;4.30;;;1.65;;
75914;SDS011;64593;51.050;13.780;2023-05-10T18:26:22;2.90;;;1.30;;
75914;SDS011;64593;51.050;13.780;2023-05-10T18:31:51;2.22;;;1.10;;
75914;SDS011;64593;51.050;13.780;2023-05-10T18:37:02;2.83;;;1.42;;
75914;SDS011;64593;51.050;13.780;2023-05-10T18:42:33;2.17;;;1.20;;
75914;SDS011;64593;51.050;13.780;2023-05-10T18:47:37;2.53;;;1.20;;
75914;SDS011;64593;51.050;13.780;2023-05-10T18:53:04;2.70;;;1.60;;
75914;SDS011;64593;51.050;13.780;2023-05-10T18:58:31;3.35;;;1.33;;
75914;SDS011;64593;51.050;13.780;2023-05-10T19:03:35;3.08;;;1.30;;
75914;SDS011;64593;51.050;13.780;2023-05-10T19:08:40;2.90;;;1.67;;
75914;SDS011;64593;51.050;13.780;2023-05-10T19:14:10;5.68;;;1.40;;
75914;SDS011;64593;51.050;13.780;2023-05-10T19:19:49;4.15;;;1.48;;
75914;SDS011;64593;51.050;13.780;2023-05-10T19:25:16;3.58;;;1.67;;
75914;SDS011;64593;51.050;13.780;2023-05-10T19:30:19;2.92;;;1.63;;
75914;SDS011;64593;51.050;13.780;2023-05-10T19:35:40;2.22;;;1.27;;
75914;SDS011;64593;51.050;13.780;2023-05-10T19:41:25;4.00;;;1.70;;
75914;SDS011;64593;51.050;13.780;2023-05-10T19:47:03;2.90;;;1.63;;
75914;SDS011;64593;51.050;13.780;2023-05-10T19:53:07;4.15;;;1.92;;
75914;SDS011;64593;51.050;13.780;2023-05-10T19:58:20;8.88;;;2.60;;
75914;SDS011;64593;51.050;13.780;2023-05-10T20:04:35;3.42;;;1.83;;
75914;SDS011;64593;51.050;13.780;2023-05-10T20:16:59;3.05;;;1.77;;
75914;SDS011;64593;51.050;13.780;2023-05-10T20:22:29;9.23;;;1.77;;
75914;SDS011;64593;51.050;13.780;2023-05-10T20:28:10;4.75;;;1.90;;
75914;SDS011;64593;51.050;13.780;2023-05-10T20:33:13;9.43;;;2.35;;
75914;SDS011;64593;51.050;13.780;2023-05-10T20:38:51;3.85;;;2.30;;
75914;SDS011;64593;51.050;13.780;2023-05-10T20:44:18;3.42;;;2.13;;
75914;SDS011;64593;51.050;13.780;2023-05-10T20:49:20;5.03;;;3.20;;
75914;SDS011;64593;51.050;13.780;2023-05-10T20:54:49;6.53;;;2.72;;
75914;SDS011;64593;51.050;13.780;2023-05-10T20:59:55;3.60;;;2.17;;
75914;SDS011;64593;51.050;13.780;2023-05-10T21:04:58;4.47;;;2.50;;
75914;SDS011;64593;51.050;13.780;2023-05-10T21:10:25;12.18;;;2.95;;
75914;SDS011;64593;51.050;13.780;2023-05-10T21:15:29;4.80;;;2.60;;
75914;SDS011;64593;51.050;13.780;2023-05-10T21:20:56;9.43;;;2.53;;
75914;SDS011;64593;51.050;13.780;2023-05-10T21:26:23;6.70;;;2.97;;
75914;SDS011;64593;51.050;13.780;2023-05-10T21:31:25;5.38;;;2.60;;
75914;SDS011;64593;51.050;13.780;2023-05-10T21:36:28;5.13;;;2.88;;
75914;SDS011;64593;51.050;13.780;2023-05-10T21:41:30;6.30;;;3.10;;
75914;SDS011;64593;51.050;13.780;2023-05-10T21:46:57;4.63;;;2.80;;
75914;SDS011;64593;51.050;13.780;2023-05-10T21:52:24;3.58;;;2.47;;
75914;SDS011;64593;51.050;13.780;2023-05-10T21:57:27;5.20;;;2.33;;
